Macon, GA (31204)

2:32 AM EDT on August 22, 2014 (GMT -0400)
Pierce Ave (Hwy 247) | Change Station
CLOSE
Current Station
Personal Weather Station
Location: Macon, GA
Elevation: 375 ft
Nearby Weather Stations
Active Advisory: Heat Advisory

Elev 375 ft 32.86 °N, 83.66 °W | Updated 2 minutes ago

Clear
Clear
73.5 °F
Feels Like 70 °F
N
0.0
Wind Variable Wind from SW
Gusts 0.0 mph

Today
High -- | Low -- °F
--% Chance of Precip.
Yesterday
High -- | Low -- °F
Precip. -- in
7:02 AM 8:11 PM
Waning Crescent, 10% visible
Pressure 30.06 in
Visibility 10.0 miles
Clouds Clear
Heat Index 70 °F
Dew Point 72 °F
Humidity 95%
Rainfall 0.00 in
Snow Depth Not available.
UV 0 out of 12
Pollen 7.70 out of 12
PM2.5 Moderate
Flu Activity Not available.
METAR KMCN 220553Z AUTO 00000KT 10SM CLR 23/22 A3008 RMK AO2 SLP180 T02330222 10294 20233 58008 TSNO

More Conditions Fewer Conditions

Pressure 30.06 in
Visibility 10.0 miles
Clouds Clear
Heat Index 70 °F
Dew Point 72 °F
Humidity 95%
Rainfall 0.00 in
Snow Depth Not available.
UV 0 out of 12
Pollen 7.70 out of 12
PM2.5 Moderate
Flu Activity Not available.
METAR KMCN 220553Z AUTO 00000KT 10SM CLR 23/22 A3008 RMK AO2 SLP180 T02330222 10294 20233 58008 TSNO

More Conditions Fewer Conditions

10-Day Weather Forecast

Almanac

Astronomy

Aug. 22, 2014 Rise Set
Actual Time 7:02 AM EDT 8:11 PM EDT
Civil Twilight 6:37 AM EDT 8:37 PM EDT
Nautical Twilight 6:06 AM EDT 9:07 PM EDT
Astronomical Twilight 5:35 AM EDT 9:39 PM EDT
Moon 4:28 AM EDT 6:16 PM EDT
Length of Visible Light 14h 00m
Length of Day
13h 09m
Tomorrow will be 1m 51s shorter.
Waning Crescent, 10% of the Moon is Illuminated
Today
Waning Crescent
Aug 25
New
Sep 2
First Quarter
Sep 8
Full
Sep 15
Last Quarter

Today's Extremes

State Highs State Lows

Community

WunderPhotos

Upload Photos

1,746,131 photos uploaded!

Nearby

Air Quality

  Air Quality AQ Index Pollutant
Yesterday Moderate
OZONE
Yesterday Good
PM2.5
Current Moderate
PM2.5
Friday Moderate
OZONE

Snow Depth

Station Depth Elevation
No new snow has been reported.

Earthquake Activity

City Distance Mag. Time & Date
No recent earthquake activity has been reported nearby.
Minimum magnitude displayed is 2.5.

Coastal Water Temperatures

Place Temperature
No Stations Reporting

Nearby Weather Stations